createdAt,value
2023-05-19T00:02:21.010Z,8.23
2023-05-19T00:04:49.963Z,8.70
2023-05-19T00:07:21.560Z,8.95
2023-05-19T00:10:01.126Z,8.15
2023-05-19T00:12:29.558Z,8.52
2023-05-19T00:14:56.762Z,8.50
2023-05-19T00:17:24.250Z,9.40
2023-05-19T00:19:52.513Z,8.38
2023-05-19T00:22:19.759Z,8.02
2023-05-19T00:24:46.766Z,8.73
2023-05-19T00:27:13.671Z,8.65
2023-05-19T00:29:40.704Z,8.88
2023-05-19T00:32:07.755Z,7.75
2023-05-19T00:34:34.904Z,8.18
2023-05-19T00:37:01.837Z,8.52
2023-05-19T00:39:28.783Z,8.93
2023-05-19T00:41:56.452Z,8.05
2023-05-19T00:44:23.350Z,8.90
2023-05-19T00:46:50.424Z,8.50
2023-05-19T00:49:17.696Z,8.90
2023-05-19T00:51:44.765Z,9.02
2023-05-19T00:54:12.029Z,8.60
2023-05-19T00:56:39.414Z,8.25
2023-05-19T00:59:06.818Z,8.68
2023-05-19T01:01:34.077Z,9.07
2023-05-19T01:04:01.970Z,8.05
2023-05-19T01:06:29.735Z,9.00
2023-05-19T01:08:57.575Z,8.07
2023-05-19T01:11:24.847Z,8.55
2023-05-19T01:13:51.803Z,8.07
2023-05-19T01:16:37.739Z,8.43
2023-05-19T01:19:32.088Z,7.68
2023-05-19T01:22:03.683Z,8.50
2023-05-19T01:27:19.549Z,7.60
2023-05-19T01:30:27.242Z,8.27
2023-05-19T01:32:59.303Z,8.02
2023-05-19T01:35:27.422Z,8.43
2023-05-19T01:37:57.213Z,8.52
2023-05-19T01:42:59.723Z,7.38
2023-05-19T01:45:29.032Z,8.48
2023-05-19T01:47:59.045Z,8.70
2023-05-19T01:50:26.710Z,8.20
2023-05-19T01:52:55.344Z,8.55
2023-05-19T01:55:25.691Z,8.77
2023-05-19T01:58:20.995Z,8.85
2023-05-19T02:00:54.374Z,8.45
2023-05-19T02:03:59.300Z,8.77
2023-05-19T02:06:53.867Z,8.10
2023-05-19T02:09:37.909Z,8.40
2023-05-19T02:12:24.277Z,8.32
2023-05-19T02:15:15.719Z,7.95
2023-05-19T02:17:50.771Z,8.82
2023-05-19T02:23:07.265Z,8.47
2023-05-19T02:25:34.875Z,8.60
2023-05-19T02:28:01.853Z,8.95
2023-05-19T02:30:31.765Z,8.23
2023-05-19T02:33:00.589Z,9.05
2023-05-19T02:35:28.075Z,9.32
2023-05-19T02:37:55.321Z,8.85
2023-05-19T02:40:23.069Z,9.80
2023-05-19T02:42:50.332Z,8.70
2023-05-19T02:45:17.665Z,8.88
2023-05-19T02:47:44.734Z,9.20
2023-05-19T02:50:11.747Z,8.63
2023-05-19T02:52:38.679Z,9.30
2023-05-19T02:55:06.150Z,8.82
2023-05-19T02:57:34.768Z,9.20
2023-05-19T03:00:02.074Z,8.43
2023-05-19T03:02:29.769Z,8.55
2023-05-19T03:04:56.863Z,8.50
2023-05-19T03:07:25.473Z,7.93
2023-05-19T03:09:53.238Z,8.47
2023-05-19T03:12:20.656Z,8.02
2023-05-19T03:14:47.752Z,8.73
2023-05-19T03:17:14.815Z,8.45
2023-05-19T03:19:42.143Z,9.20
2023-05-19T03:22:09.185Z,8.43
2023-05-19T03:24:36.342Z,8.00
2023-05-19T03:27:05.862Z,7.95
2023-05-19T03:29:33.226Z,7.95
2023-05-19T03:32:00.491Z,8.43
2023-05-19T03:34:27.688Z,7.70
2023-05-19T03:36:55.631Z,7.68
2023-05-19T03:39:23.405Z,7.22
2023-05-19T03:41:51.395Z,7.20
2023-05-19T03:44:18.444Z,6.30
2023-05-19T03:46:45.476Z,6.90
2023-05-19T03:49:30.959Z,6.82
2023-05-19T03:51:58.208Z,6.32
2023-05-19T03:54:38.990Z,6.25
2023-05-19T03:57:06.220Z,5.97
2023-05-19T03:59:33.270Z,6.00
2023-05-19T04:02:00.451Z,6.68
2023-05-19T04:04:28.540Z,6.25
2023-05-19T04:06:55.599Z,6.20
2023-05-19T04:09:24.492Z,6.18
2023-05-19T04:11:51.515Z,6.32
2023-05-19T04:14:20.106Z,6.80
2023-05-19T04:16:47.173Z,7.47
2023-05-19T04:19:14.327Z,6.90
2023-05-19T04:21:41.387Z,6.55
2023-05-19T04:24:08.504Z,8.02
2023-05-19T04:26:36.092Z,6.93
2023-05-19T04:29:04.710Z,6.80
2023-05-19T04:31:34.494Z,6.63
2023-05-19T04:34:02.646Z,6.93
2023-05-19T04:36:29.652Z,6.28
2023-05-19T04:39:02.685Z,7.05
2023-05-19T04:41:31.565Z,7.03
2023-05-19T04:43:59.800Z,6.72
2023-05-19T04:46:27.365Z,6.80
2023-05-19T04:48:57.192Z,5.70
2023-05-19T04:51:30.336Z,6.50
2023-05-19T04:54:01.646Z,6.15
2023-05-19T04:56:29.090Z,6.18
2023-05-19T04:58:57.150Z,6.88
2023-05-19T05:01:26.570Z,6.28
2023-05-19T05:03:55.533Z,6.72
2023-05-19T05:06:23.001Z,6.60
2023-05-19T05:08:50.960Z,6.40
2023-05-19T05:11:19.043Z,6.07
2023-05-19T05:13:47.584Z,6.18
2023-05-19T05:16:15.082Z,5.97
2023-05-19T05:18:44.695Z,6.03
2023-05-19T05:23:41.048Z,5.80
2023-05-19T05:26:18.875Z,6.35
2023-05-19T05:28:48.345Z,5.93
2023-05-19T05:31:16.340Z,6.60
2023-05-19T05:33:44.763Z,6.50
2023-05-19T05:36:13.868Z,6.93
2023-05-19T05:38:41.158Z,7.60
2023-05-19T05:41:11.357Z,7.70
2023-05-19T05:43:38.377Z,8.98
2023-05-19T05:46:05.584Z,8.35
2023-05-19T05:48:33.405Z,8.05
2023-05-19T05:51:01.326Z,7.93
2023-05-19T05:53:37.041Z,7.45
2023-05-19T05:56:05.020Z,8.63
2023-05-19T05:58:40.828Z,7.63
2023-05-19T06:01:11.264Z,7.32
2023-05-19T06:03:44.575Z,6.78
2023-05-19T06:06:14.450Z,5.78
2023-05-19T06:08:41.561Z,7.45
2023-05-19T06:11:09.507Z,7.53
2023-05-19T06:13:39.455Z,7.90
2023-05-19T06:16:09.597Z,6.63
2023-05-19T06:18:43.654Z,7.45
2023-05-19T06:21:13.564Z,8.20
2023-05-19T06:23:41.804Z,7.47
2023-05-19T06:26:10.672Z,6.15
2023-05-19T06:28:38.101Z,7.22
2023-05-19T06:31:06.055Z,7.60
2023-05-19T06:34:02.389Z,8.98
2023-05-19T06:36:29.365Z,10.10
2023-05-19T06:38:57.721Z,9.77
2023-05-19T06:41:26.928Z,9.60
2023-05-19T06:43:53.894Z,9.85
2023-05-19T06:46:22.312Z,10.07
2023-05-19T06:48:49.736Z,9.85
2023-05-19T06:51:21.825Z,8.45
2023-05-19T06:53:53.535Z,9.68
2023-05-19T06:56:23.122Z,9.60
2023-05-19T06:58:53.596Z,6.97
2023-05-19T07:01:26.565Z,4.95
2023-05-19T07:03:56.088Z,3.78
2023-05-19T07:06:23.143Z,3.28
2023-05-19T07:08:52.126Z,3.10
2023-05-19T07:11:19.586Z,2.90
2023-05-19T07:13:47.770Z,3.33
2023-05-19T07:16:21.064Z,2.83
2023-05-19T07:18:48.218Z,2.70
2023-05-19T07:21:15.190Z,2.50
2023-05-19T07:23:42.348Z,2.55
2023-05-19T07:26:09.535Z,2.17
2023-05-19T07:28:37.774Z,2.42
2023-05-19T07:31:06.658Z,2.40
2023-05-19T07:33:33.518Z,2.65
2023-05-19T07:36:00.601Z,2.22
2023-05-19T07:38:28.845Z,1.85
2023-05-19T07:40:55.862Z,1.95
2023-05-19T07:43:22.950Z,1.88
2023-05-19T07:45:50.001Z,1.70
2023-05-19T07:48:18.803Z,1.90
2023-05-19T07:50:46.012Z,1.37
2023-05-19T07:53:21.897Z,1.58
2023-05-19T07:55:49.480Z,1.90
2023-05-19T07:58:16.407Z,1.63
2023-05-19T08:00:43.410Z,1.80
2023-05-19T08:03:10.457Z,1.70
2023-05-19T08:05:38.155Z,1.92
2023-05-19T08:08:05.369Z,1.48
2023-05-19T08:10:32.549Z,1.40
2023-05-19T08:12:59.592Z,1.55
2023-05-19T08:15:26.883Z,1.52
2023-05-19T08:17:53.906Z,1.40
2023-05-19T08:20:22.811Z,1.45
2023-05-19T08:22:49.881Z,1.30
2023-05-19T08:25:16.938Z,1.60
2023-05-19T08:27:44.037Z,1.23
2023-05-19T08:30:11.429Z,1.10
2023-05-19T08:32:38.337Z,1.25
2023-05-19T08:35:05.575Z,1.17
2023-05-19T08:37:34.082Z,1.33
2023-05-19T08:40:01.283Z,1.35
2023-05-19T08:42:28.166Z,1.10
2023-05-19T08:44:55.074Z,1.33
2023-05-19T08:47:22.869Z,1.10
2023-05-19T08:49:53.236Z,1.30
2023-05-19T08:52:53.641Z,1.00
2023-05-19T08:55:27.689Z,1.20
2023-05-19T08:57:56.113Z,1.00
2023-05-19T09:00:23.683Z,1.20
2023-05-19T09:03:01.071Z,1.40
2023-05-19T09:05:33.957Z,0.90
2023-05-19T09:08:02.855Z,0.88
2023-05-19T09:10:29.798Z,1.00
2023-05-19T09:12:57.050Z,1.02
2023-05-19T09:15:27.312Z,1.10
2023-05-19T09:18:12.112Z,0.93
2023-05-19T09:20:44.583Z,1.13
2023-05-19T09:23:16.729Z,1.08
2023-05-19T09:25:51.229Z,1.00
2023-05-19T09:28:25.488Z,1.05
2023-05-19T09:31:17.387Z,1.00
2023-05-19T09:33:46.024Z,1.10
2023-05-19T09:36:14.191Z,0.90
2023-05-19T09:38:41.582Z,1.17
2023-05-19T09:41:09.814Z,1.10
2023-05-19T09:43:36.880Z,0.80
2023-05-19T09:46:08.272Z,1.20
2023-05-19T09:48:36.464Z,0.95
2023-05-19T09:51:10.301Z,0.98
2023-05-19T09:53:39.234Z,0.80
2023-05-19T09:56:08.768Z,0.80
2023-05-19T09:58:36.531Z,0.90
2023-05-19T10:01:05.316Z,1.15
2023-05-19T10:03:34.054Z,1.37
2023-05-19T10:06:09.291Z,1.15
2023-05-19T10:08:37.190Z,1.10
2023-05-19T10:11:05.263Z,0.80
2023-05-19T10:13:35.239Z,1.10
2023-05-19T10:16:03.108Z,1.10
2023-05-19T10:18:32.742Z,1.10
2023-05-19T10:21:01.635Z,1.30
2023-05-19T10:23:28.557Z,0.80
2023-05-19T10:25:58.808Z,0.90
2023-05-19T10:28:31.728Z,1.25
2023-05-19T10:31:01.747Z,1.10
2023-05-19T10:33:54.019Z,1.00
2023-05-19T10:36:38.595Z,1.15
2023-05-19T10:39:12.825Z,1.00
2023-05-19T10:41:47.713Z,1.17
2023-05-19T10:44:39.588Z,1.27
2023-05-19T10:47:08.680Z,1.10
2023-05-19T10:49:36.841Z,1.13
2023-05-19T10:52:09.398Z,1.00
2023-05-19T10:54:46.935Z,1.00
2023-05-19T10:57:32.124Z,1.00
2023-05-19T11:00:07.979Z,1.13
2023-05-19T11:02:40.581Z,1.20
2023-05-19T11:05:14.630Z,1.30
2023-05-19T11:07:43.882Z,1.48
2023-05-19T11:10:11.265Z,0.90
2023-05-19T11:12:43.983Z,1.35
2023-05-19T11:15:15.387Z,1.30
2023-05-19T11:17:45.694Z,1.50
2023-05-19T11:20:26.655Z,1.63
2023-05-19T11:23:08.310Z,1.10
2023-05-19T11:25:46.762Z,1.10
2023-05-19T11:28:27.866Z,1.30
2023-05-19T11:30:57.492Z,1.55
2023-05-19T11:35:58.533Z,1.70
2023-05-19T11:38:30.492Z,1.40
2023-05-19T11:40:57.672Z,1.40
2023-05-19T11:43:25.872Z,1.40
2023-05-19T11:45:54.705Z,1.40
2023-05-19T11:48:22.531Z,1.70
2023-05-19T11:50:50.222Z,1.60
2023-05-19T11:53:19.945Z,1.30
2023-05-19T11:55:48.409Z,1.52
2023-05-19T11:58:16.574Z,1.63
2023-05-19T12:00:46.317Z,1.30
2023-05-19T12:03:13.632Z,1.45
2023-05-19T12:05:45.896Z,1.58
2023-05-19T12:08:13.485Z,1.67
2023-05-19T12:10:41.013Z,1.63
2023-05-19T12:13:09.755Z,1.58
2023-05-19T12:15:37.656Z,1.70
2023-05-19T12:18:04.696Z,1.30
2023-05-19T12:20:35.432Z,1.80
2023-05-19T12:23:03.133Z,1.58
2023-05-19T12:25:31.197Z,1.70
2023-05-19T12:28:05.120Z,1.60
2023-05-19T12:30:33.672Z,2.28
2023-05-19T12:33:02.598Z,2.40
2023-05-19T12:35:36.287Z,2.15
2023-05-19T12:38:05.006Z,1.80
2023-05-19T12:40:33.962Z,1.77
2023-05-19T12:43:01.494Z,1.70
2023-05-19T12:45:28.948Z,1.90
2023-05-19T12:47:56.812Z,1.80
2023-05-19T12:50:31.182Z,1.80
2023-05-19T12:52:59.882Z,2.10
2023-05-19T12:55:27.052Z,2.10
2023-05-19T12:57:57.070Z,2.00
2023-05-19T13:00:28.085Z,2.47
2023-05-19T13:03:06.274Z,2.10
2023-05-19T13:05:43.570Z,2.00
2023-05-19T13:08:12.302Z,1.70
2023-05-19T13:10:41.553Z,2.23
2023-05-19T13:13:09.727Z,2.30
2023-05-19T13:15:44.636Z,2.05
2023-05-19T13:18:12.903Z,2.15
2023-05-19T13:20:41.181Z,2.30
2023-05-19T13:23:10.128Z,2.47
2023-05-19T13:25:37.053Z,2.90
2023-05-19T13:28:05.787Z,2.70
2023-05-19T13:30:34.384Z,2.72
2023-05-19T13:33:02.231Z,2.83
2023-05-19T13:35:29.927Z,2.75
2023-05-19T13:37:56.879Z,2.80
2023-05-19T13:40:24.203Z,3.05
2023-05-19T13:42:51.192Z,2.70
2023-05-19T13:45:18.421Z,2.90
2023-05-19T13:47:45.515Z,2.80
2023-05-19T13:50:12.659Z,2.90
2023-05-19T13:52:39.664Z,2.92
2023-05-19T13:55:07.503Z,2.55
2023-05-19T13:57:34.401Z,3.10
2023-05-19T14:00:03.881Z,3.05
2023-05-19T14:02:40.466Z,3.42
2023-05-19T14:05:08.197Z,3.03
2023-05-19T14:07:35.502Z,2.90
2023-05-19T14:10:03.934Z,2.97
2023-05-19T14:12:41.457Z,2.95
2023-05-19T14:15:14.565Z,3.38
2023-05-19T14:17:41.843Z,3.42
2023-05-19T14:20:09.642Z,3.10
2023-05-19T14:22:36.631Z,2.63
2023-05-19T14:25:03.815Z,2.15
2023-05-19T14:27:30.775Z,2.42
2023-05-19T14:29:57.841Z,2.28
2023-05-19T14:32:25.286Z,2.53
2023-05-19T14:34:53.484Z,2.22
2023-05-19T14:37:20.760Z,2.17
2023-05-19T14:39:47.658Z,2.22
2023-05-19T14:42:14.727Z,2.50
2023-05-19T14:44:41.621Z,2.13
2023-05-19T14:47:08.699Z,2.45
2023-05-19T14:49:35.608Z,2.13
2023-05-19T14:52:02.568Z,2.67
2023-05-19T14:54:29.502Z,2.53
2023-05-19T14:56:56.405Z,2.80
2023-05-19T14:59:23.320Z,2.67
2023-05-19T15:01:50.271Z,2.17
2023-05-19T15:04:17.332Z,2.92
2023-05-19T15:06:45.182Z,3.08
2023-05-19T15:09:15.020Z,3.00
2023-05-19T15:11:41.991Z,2.33
2023-05-19T15:14:09.005Z,2.50
2023-05-19T15:16:35.999Z,2.70
2023-05-19T15:19:02.913Z,2.78
2023-05-19T15:21:29.845Z,2.60
2023-05-19T15:23:56.855Z,2.58
2023-05-19T15:26:23.880Z,2.90
2023-05-19T15:28:52.398Z,2.50
2023-05-19T15:31:19.407Z,2.75
2023-05-19T15:33:46.311Z,2.60
2023-05-19T15:36:16.404Z,3.13
2023-05-19T15:38:43.399Z,3.28
2023-05-19T15:41:11.144Z,3.70
2023-05-19T15:43:38.705Z,4.05
2023-05-19T15:46:05.629Z,3.58
2023-05-19T15:48:33.039Z,3.03
2023-05-19T15:51:00.157Z,3.38
2023-05-19T15:53:27.152Z,3.22
2023-05-19T15:55:54.101Z,3.92
2023-05-19T15:58:21.015Z,3.63
2023-05-19T16:00:48.146Z,3.70
2023-05-19T16:03:15.273Z,4.22
2023-05-19T16:05:42.485Z,4.47
2023-05-19T16:08:09.461Z,4.47
2023-05-19T16:10:36.492Z,5.10
2023-05-19T16:13:03.366Z,5.00
2023-05-19T16:15:30.369Z,4.90
2023-05-19T16:17:57.329Z,5.50
2023-05-19T16:20:27.860Z,4.97
2023-05-19T16:22:55.481Z,5.60
2023-05-19T16:25:22.837Z,5.20
2023-05-19T16:27:50.362Z,5.25
2023-05-19T16:30:17.334Z,4.97
2023-05-19T16:32:44.425Z,5.13
2023-05-19T16:35:11.753Z,5.18
2023-05-19T16:37:38.708Z,5.40
2023-05-19T16:40:06.317Z,5.88
2023-05-19T16:42:33.202Z,5.75
2023-05-19T16:45:00.233Z,6.68
2023-05-19T16:47:27.206Z,6.40
2023-05-19T16:49:54.198Z,6.78
2023-05-19T16:52:21.120Z,6.53
2023-05-19T16:54:48.046Z,7.13
2023-05-19T16:57:14.955Z,7.05
2023-05-19T16:59:42.286Z,7.55
2023-05-19T17:02:09.419Z,7.30
2023-05-19T17:04:36.360Z,7.15
2023-05-19T17:07:03.375Z,7.45
2023-05-19T17:09:30.266Z,7.30
2023-05-19T17:11:57.228Z,7.38
2023-05-19T17:14:24.215Z,7.68
2023-05-19T17:16:52.503Z,7.68
2023-05-19T17:19:19.485Z,7.30
2023-05-19T17:21:46.511Z,7.15
2023-05-19T17:24:13.430Z,7.25
2023-05-19T17:26:40.386Z,7.07
2023-05-19T17:29:08.100Z,7.95
2023-05-19T17:31:35.247Z,8.13
2023-05-19T17:34:02.079Z,7.95
2023-05-19T17:36:29.120Z,8.48
2023-05-19T17:38:56.065Z,7.10
2023-05-19T17:41:23.162Z,9.10
2023-05-19T17:43:50.226Z,8.18
2023-05-19T17:46:17.088Z,7.53
2023-05-19T17:48:43.997Z,8.00
2023-05-19T17:51:11.478Z,8.18
2023-05-19T17:53:38.740Z,7.43
2023-05-19T17:56:08.810Z,8.00
2023-05-19T17:58:36.419Z,7.78
2023-05-19T18:01:03.421Z,7.80
2023-05-19T18:03:31.023Z,8.15
2023-05-19T18:05:58.720Z,8.38
2023-05-19T18:08:25.956Z,8.02
2023-05-19T18:10:55.010Z,7.65
2023-05-19T18:13:23.619Z,8.70
2023-05-19T18:15:52.650Z,8.57
2023-05-19T18:18:19.565Z,9.45
2023-05-19T18:20:46.605Z,8.98
2023-05-19T18:23:13.543Z,8.73
2023-05-19T18:25:40.657Z,8.18
2023-05-19T18:28:08.510Z,7.72
2023-05-19T18:30:36.134Z,9.10
2023-05-19T18:33:04.149Z,8.43
2023-05-19T18:35:31.241Z,8.88
2023-05-19T18:37:58.321Z,7.90
2023-05-19T18:40:25.154Z,8.43
2023-05-19T18:42:52.117Z,9.55
2023-05-19T18:45:19.073Z,8.73
2023-05-19T18:47:46.466Z,8.07
2023-05-19T18:50:13.565Z,8.15
2023-05-19T18:52:40.696Z,8.60
2023-05-19T18:55:07.941Z,8.93
2023-05-19T18:57:34.925Z,9.20
2023-05-19T19:00:02.085Z,9.00
2023-05-19T19:02:29.062Z,8.90
2023-05-19T19:04:56.117Z,8.85
2023-05-19T19:07:24.490Z,9.35
2023-05-19T19:09:51.421Z,8.38
2023-05-19T19:12:19.674Z,8.77
2023-05-19T19:14:47.443Z,9.13
2023-05-19T19:17:18.140Z,8.75
2023-05-19T19:19:45.503Z,8.50
2023-05-19T19:22:12.475Z,8.73
2023-05-19T19:24:39.771Z,8.73
2023-05-19T19:27:06.920Z,8.75
2023-05-19T19:29:34.096Z,8.75
2023-05-19T19:32:01.247Z,8.82
2023-05-19T19:34:28.282Z,9.13
2023-05-19T19:36:55.154Z,9.43
2023-05-19T19:39:22.020Z,9.32
2023-05-19T19:41:48.984Z,9.52
2023-05-19T19:44:15.976Z,10.32
2023-05-19T19:46:42.988Z,11.07
2023-05-19T19:49:09.981Z,10.23
2023-05-19T19:51:36.834Z,10.02
2023-05-19T19:54:03.754Z,10.85
2023-05-19T19:56:30.660Z,10.68
2023-05-19T19:58:59.157Z,10.60
2023-05-19T20:01:27.558Z,10.82
2023-05-19T20:03:55.485Z,10.18
2023-05-19T20:06:22.696Z,11.05
2023-05-19T20:08:50.152Z,10.60
2023-05-19T20:11:17.458Z,10.23
2023-05-19T20:13:44.377Z,10.90
2023-05-19T20:16:11.523Z,11.43
2023-05-19T20:18:39.680Z,9.77
2023-05-19T20:21:06.694Z,10.73
2023-05-19T20:23:33.872Z,11.45
2023-05-19T20:26:12.080Z,11.05
2023-05-19T20:28:40.405Z,10.88
2023-05-19T20:31:07.736Z,10.13
2023-05-19T20:33:35.001Z,12.68
2023-05-19T20:36:01.985Z,11.55
2023-05-19T20:38:29.015Z,12.30
2023-05-19T20:40:55.954Z,11.68
2023-05-19T20:43:22.946Z,11.23
2023-05-19T20:45:49.963Z,11.35
2023-05-19T20:48:17.111Z,11.40
2023-05-19T20:50:44.106Z,12.30
2023-05-19T20:53:11.128Z,12.48
2023-05-19T20:55:39.086Z,12.00
2023-05-19T20:58:06.151Z,10.60
2023-05-19T21:00:33.478Z,11.75
2023-05-19T21:03:01.440Z,11.23
2023-05-19T21:05:28.704Z,11.52
2023-05-19T21:07:55.631Z,11.85
2023-05-19T21:10:22.470Z,11.52
2023-05-19T21:12:49.369Z,12.05
2023-05-19T21:15:16.472Z,12.20
2023-05-19T21:17:43.469Z,11.80
2023-05-19T21:20:10.983Z,11.98
2023-05-19T21:22:37.956Z,11.75
2023-05-19T21:25:05.488Z,11.82
2023-05-19T21:27:35.405Z,12.50
2023-05-19T21:30:02.618Z,11.70
2023-05-19T21:32:29.717Z,11.48
2023-05-19T21:34:56.734Z,11.38
2023-05-19T21:37:23.604Z,11.30
2023-05-19T21:39:50.722Z,10.68
2023-05-19T21:42:17.673Z,11.43
2023-05-19T21:44:44.774Z,10.32
2023-05-19T21:47:11.660Z,11.43
2023-05-19T21:49:40.075Z,10.70
2023-05-19T21:52:10.433Z,11.30
2023-05-19T21:54:37.379Z,10.75
2023-05-19T21:57:04.402Z,10.15
2023-05-19T21:59:31.437Z,10.85
2023-05-19T22:01:58.609Z,10.55
2023-05-19T22:04:25.635Z,11.13
2023-05-19T22:06:52.574Z,10.48
2023-05-19T22:09:19.529Z,11.00
2023-05-19T22:11:46.483Z,10.68
2023-05-19T22:14:13.652Z,11.18
2023-05-19T22:16:40.555Z,10.98
2023-05-19T22:19:07.566Z,10.93
2023-05-19T22:21:34.614Z,11.13
2023-05-19T22:24:01.445Z,10.88
2023-05-19T22:26:28.649Z,11.75
2023-05-19T22:28:55.743Z,10.57
2023-05-19T22:31:22.751Z,10.43
2023-05-19T22:33:49.619Z,11.38
2023-05-19T22:36:16.837Z,10.15
2023-05-19T22:38:43.716Z,10.45
2023-05-19T22:41:11.273Z,9.85
2023-05-19T22:43:38.381Z,10.50
2023-05-19T22:46:05.488Z,9.80
2023-05-19T22:48:32.485Z,10.30
2023-05-19T22:50:59.412Z,10.02
2023-05-19T22:53:26.309Z,9.48
2023-05-19T22:55:53.140Z,10.02
2023-05-19T22:58:20.048Z,9.70
2023-05-19T23:00:46.981Z,9.82
2023-05-19T23:03:14.021Z,9.65
2023-05-19T23:05:41.056Z,10.88
2023-05-19T23:08:08.186Z,10.48
2023-05-19T23:10:35.914Z,10.30
2023-05-19T23:13:03.289Z,10.60
2023-05-19T23:15:30.216Z,10.88
2023-05-19T23:17:57.353Z,10.35
2023-05-19T23:20:24.557Z,10.55
2023-05-19T23:22:51.788Z,11.60
2023-05-19T23:25:18.797Z,11.02
2023-05-19T23:27:46.651Z,11.40
2023-05-19T23:30:13.470Z,11.35
2023-05-19T23:32:40.914Z,11.75
2023-05-19T23:35:12.526Z,11.25
2023-05-19T23:37:39.679Z,11.10
2023-05-19T23:40:07.512Z,11.32
2023-05-19T23:42:35.021Z,11.77
2023-05-19T23:45:02.199Z,11.25
2023-05-19T23:47:29.130Z,11.13
2023-05-19T23:49:56.112Z,11.38
2023-05-19T23:52:23.061Z,11.88
2023-05-19T23:54:50.026Z,11.85
2023-05-19T23:57:17.083Z,12.35
2023-05-19T23:59:43.987Z,11.75
